トロント/ピアソン の空港の天気 - METARとTAF

トロント・ピアソン国際空港 ( CYYZ / YYZ ) - カナダ オンタリオ州トロント
飛行場実況気象(Metar)
観測時間01/21 13:00 EST (01/21 18:00 UTC)
風向・風速北西 7m/s
視程10km以上
天気現象
少しの雲 雲底高度 1220m
気温-13℃
湿度56%
気圧1031.8hPa
METARCYYZ 211800Z 31014KT 15SM FEW040 M13/M20 A3042 RMK CU1 CU TRACE SLP318
過去の天気等 Google飛行場航空写真 Wunderground天気予報

過去48時間のMETAR

飛行場予報(TAF)
発表時間: 1/21 12:38 EST (1/21 17:38 UTC)
予報対象時間: 21日13時 EST ~ 22日19時 EST
風向・風速北北西 6m/s 瞬間風速 11m/s
視程10km以上
少しの雲 雲底高度 760m
21日19時 EST ~ 21日20時 EST に徐々に
風向・風速北西 5m/s
22日1時 EST から
風向・風速西北西 3m/s
視程10km以上
全天の4割程度の雲 雲底高度 7620m
22日3時 EST ~ 22日4時 EST に徐々に
風向・風速不定 2m/s
22日9時 EST から
風向・風速南 3m/s
視程10km以上
全天の8割程度の雲 雲底高度 3660m
全天を覆う雲 雲底高度 6100m
22日13時 EST から
風向・風速南東 5m/s 瞬間風速 10m/s
視程10km以上
全天を覆う雲 雲底高度 3050m
TAF CYYZ 211738Z 2118/2224 33012G22KT P6SM FEW025
BECMG 2200/2201 32010KT
FM220600 30005KT P6SM SCT250
BECMG 2208/2209 VRB03KT
FM221400 17005KT P6SM BKN120 OVC200
FM221800 14010G20KT P6SM OVC100 RMK NXT FCST BY 212100Z